Flight Track Log - Related Links

Times and Time Zones

All times are in EDT time to prevent confusion due to time zone crossing. See the N24BK flight status page for this flight to view local times or setup timezone preferences in your user account.

Time Position Orientation Groundspeed Altitude Reporting Facility
EDT Latitude Longitude Course Direction KTS MPH feet Rate Location/Type
Thu 03:48:53 PM 27.9833 -82.0000 24° Northeast 102 117 600  Level Tampa TRACON
Thu 03:49:54 PM 28.0167 -81.9833 24° Northeast 119 137 1,300 893 Climbing Tampa TRACON
Thu 03:50:54 PM 28.0500 -81.9833 360° North 115 132 2,400 1,050 Climbing Tampa TRACON
Thu 03:51:54 PM 28.0667 -82.0000 319° Northwest 116 133 3,400 750 Climbing Tampa TRACON
Thu 03:52:54 PM 28.1000 -82.0000 360° North 112 129 3,900 550 Climbing Tampa TRACON
Thu 03:53:54 PM 28.1333 -82.0000 360° North 115 132 4,500 550 Climbing Tampa TRACON
Thu 03:54:54 PM 28.1667 -82.0167 336° Northwest 108 124 5,000 645 Climbing Tampa TRACON
Thu 03:55:55 PM 28.2000 -82.0167 360° North 110 127 5,800 650 Climbing Tampa TRACON
Thu 03:56:54 PM 28.2167 -82.0333 319° Northwest 111 128 6,300 504 Climbing Tampa TRACON
Thu 03:57:54 PM 28.2500 -82.0333 360° North 109 125 6,800 545 Climbing Tampa TRACON
Thu 03:58:55 PM 28.2833 -82.0333 360° North 107 123 7,400 496 Climbing Tampa TRACON
Thu 03:59:55 PM 28.3167 -82.0333 360° North 108 124 7,800 300 Climbing Tampa TRACON
Thu 04:00:55 PM 28.3500 -82.0500 336° Northwest 124 143 8,000 100 Climbing Tampa TRACON
Thu 04:01:55 PM 28.3833 -82.0500 360° North 149 171 8,000  Level Tampa TRACON
Thu 04:02:55 PM 28.4333 -82.0667 344° North 155 178 8,000  Level Tampa TRACON
Thu 04:03:55 PM 28.4667 -82.0833 336° Northwest 157 181 8,000  Level Tampa TRACON
Thu 04:04:51 PM 28.5086 -82.0964 345° North 157 181 8,000  Level Jacksonville Center
Thu 04:05:16 PM 28.5294 -82.1058 338° Northwest 157 181 8,000  Level Jacksonville Center
Thu 04:06:17 PM 28.5733 -82.1125 352° North 159 183 8,000  Level Jacksonville Center
Thu 04:07:12 PM 28.6131 -82.1217 349° North 156 180 8,000  Level Jacksonville Center
Thu 04:08:13 PM 28.6528 -82.1308 349° North 152 175 8,000  Level Jacksonville Center
Thu 04:09:20 PM 28.7028 -82.1375 353° North 158 182 8,000  Level Jacksonville Center
Thu 04:10:21 PM 28.7489 -82.1419 355° North 163 188 8,000  Level Jacksonville Center
Thu 04:11:22 PM 28.7925 -82.1464 355° North 161 185 8,000  Level Jacksonville Center
Thu 04:12:29 PM 28.8447 -82.1506 356° North 162 186 8,000  Level Jacksonville Center
Thu 04:13:24 PM 28.8867 -82.1575 352° North 162 186 8,000  Level Jacksonville Center
Thu 04:14:25 PM 28.9306 -82.1642 352° North 160 184 8,000  Level Jacksonville Center
Thu 04:15:26 PM 28.9722 -82.1592 North 157 181 8,000  Level Jacksonville Center
Thu 04:16:27 PM 29.0161 -82.1611 358° North 157 181 8,000  Level Jacksonville Center
Thu 04:17:34 PM 29.0683 -82.1633 358° North 162 186 8,000  Level Jacksonville Center
Thu 04:18:35 PM 29.1119 -82.1606 North 165 190 8,000  Level Jacksonville Center
Thu 04:19:30 PM 29.1558 -82.1578 North 162 186 8,000  Level Jacksonville Center
Thu 04:20:31 PM 29.1997 -82.1553 North 161 185 8,000  Level Jacksonville Center
Thu 04:21:38 PM 29.2519 -82.1547 North 165 190 8,000  Level Jacksonville Center
Thu 04:22:40 PM 29.2956 -82.1544 360° North 161 185 8,000  Level Jacksonville Center
Thu 04:23:41 PM 29.3417 -82.1564 358° North 162 186 8,000  Level Jacksonville Center
Thu 04:24:36 PM 29.3814 -82.1539 North 161 185 8,000  Level Jacksonville Center
Thu 04:25:37 PM 29.4314 -82.1486 North 164 189 8,000  Level Jacksonville Center
Thu 04:26:44 PM 29.4794 -82.1458 North 163 188 8,000  Level Jacksonville Center
Thu 04:27:45 PM 29.5253 -82.1456 360° North 163 188 8,000  Level Jacksonville Center
Thu 04:28:46 PM 29.5733 -82.1475 358° North 164 189 8,000  Level Jacksonville Center
Thu 04:29:47 PM 29.6192 -82.1472 360° North 164 189 8,000  Level Jacksonville Center
Thu 04:30:48 PM 29.6672 -82.1444 North 162 186 8,000  Level Jacksonville Center
Thu 04:31:49 PM 29.7111 -82.1442 360° North 161 185 8,000  Level Jacksonville Center
Thu 04:32:56 PM 29.7592 -82.1581 346° North 156 180 8,000 49 Level Jacksonville Center
Thu 04:33:51 PM 29.7989 -82.1603 357° North 160 184 8,100 295 Climbing Jacksonville Center
Thu 04:35:00 PM 29.8460 -82.1609 359° North  Level FlightAware Approximate
Thu 04:35:59 PM 29.8844 -82.1500 359° North 138 159 8,900  Level Jacksonville Center
Thu 04:37:00 PM 29.9242 -82.1472 North 140 161 9,000 49 Climbing Jacksonville Center
Thu 04:38:01 PM 29.9678 -82.1422 North 157 181 9,000  Level Jacksonville Center
Thu 04:39:02 PM 30.0158 -82.1394 North 163 188 9,000  Level Jacksonville Center
Thu 04:39:57 PM 30.0533 -82.1367 North 163 188 9,000  Level Jacksonville Center
Thu 04:40:52 PM 30.0953 -82.1339 North 166 191 9,000  Level Jacksonville Center
Thu 04:41:53 PM 30.1453 -82.1286 North 156 180 9,000  Level Jacksonville Center
Thu 04:42:54 PM 30.1892 -82.1283 360° North 160 184 9,000  Level Jacksonville Center
Thu 04:43:55 PM 30.2331 -82.1306 357° North 161 185 9,000  Level Jacksonville Center
Thu 04:44:56 PM 30.2789 -82.1300 North 160 184 9,000  Level Jacksonville Center
Thu 04:45:57 PM 30.3247 -82.1297 360° North 157 181 9,000  Level Jacksonville Center
Thu 04:46:58 PM 30.3706 -82.1269 North 163 188 9,000  Level Jacksonville Center
Thu 04:47:59 PM 30.4186 -82.1264 North 163 188 9,000  Level Jacksonville Center
Thu 04:49:00 PM 30.4625 -82.1239 North 160 184 9,000  Level Jacksonville Center
Thu 04:50:01 PM 30.5086 -82.1233 North 161 185 9,000  Level Jacksonville Center
Thu 04:51:02 PM 30.5544 -82.1231 360° North 164 189 9,000  Level Jacksonville Center
Thu 04:51:57 PM 30.5942 -82.1228 360° North 165 190 9,000  Level Jacksonville Center
Thu 04:52:40 PM 30.6275 -82.1225 360° North 164 189 9,000  Level Jacksonville Center
Thu 04:52:58 PM 30.6400 -82.1225 360° North 167 192 9,000  Level Jacksonville Center
Thu 04:53:40 PM 30.6733 -82.1222 360° North 164 189 9,000  Level Jacksonville Center
Thu 04:53:59 PM 30.6922 -82.1219 North 168 193 9,000  Level Jacksonville Center
Thu 04:54:40 PM 30.7172 -82.1217 North 164 189 9,000  Level Jacksonville Center
Thu 04:55:00 PM 30.7361 -82.1239 354° North 164 189 9,000  Level Jacksonville Center
Thu 04:55:40 PM 30.7589 -82.1214 North 164 189 9,000  Level Jacksonville Center
Thu 04:56:40 PM 30.8028 -82.1211 360° North 164 189 9,000  Level Jacksonville Center
Thu 04:57:40 PM 30.8467 -82.1206 North 159 183 9,000  Level Jacksonville Center
Thu 04:58:40 PM 30.8925 -82.1178 North 159 183 9,000  Level Jacksonville Center
Thu 04:59:40 PM 30.9386 -82.1175 360° North 159 183 9,000  Level Jacksonville Center
Thu 05:01:00 PM 30.9930 -82.1315 348° North  Level FlightAware Approximate
Thu 05:01:40 PM 31.0283 -82.1167 348° North 159 183 9,000  Level Jacksonville Center
Thu 05:02:40 PM 31.0742 -82.1139 North 159 183 9,000  Level Jacksonville Center
Thu 05:03:40 PM 31.1203 -82.1111 North 159 183 9,000  Level Jacksonville Center
Thu 05:04:40 PM 31.1661 -82.1083 North 159 183 9,000  Level Jacksonville Center
Thu 05:05:40 PM 31.2119 -82.1081 360° North 159 183 9,000  Level Jacksonville Center
Thu 05:06:40 PM 31.2558 -82.1075 North 159 183 9,000  Level Jacksonville Center
Thu 05:07:40 PM 31.3019 -82.1097 358° North 159 183 9,000  Level Jacksonville Center
Thu 05:08:40 PM 31.3478 -82.1142 355° North 159 183 9,000  Level Jacksonville Center
Thu 05:09:40 PM 31.3894 -82.1186 355° North 159 183 9,000  Level Jacksonville Center
Thu 05:10:40 PM 31.4397 -82.1133 North 154 177 9,000  Level Jacksonville Center
Thu 05:11:40 PM 31.4856 -82.1056 North 159 183 9,000  Level Jacksonville Center
Thu 05:12:40 PM 31.5253 -82.0981 North 159 183 9,000  Level Jacksonville Center
Thu 05:13:40 PM 31.5689 -82.0928 North 159 183 9,000  Level Jacksonville Center
Thu 05:14:40 PM 31.6192 -82.0900 North 159 183 9,000  Level Jacksonville Center
Thu 05:15:40 PM 31.6650 -82.0869 North 159 183 9,000  Level Jacksonville Center
Thu 05:16:40 PM 31.7067 -82.0867 360° North 159 183 9,000  Level Jacksonville Center
Thu 05:17:40 PM 31.7464 -82.0889 357° North 154 177 9,000  Level Jacksonville Center
Thu 05:18:40 PM 31.7903 -82.0908 358° North 159 183 9,000 -450 Level Jacksonville Center
Thu 05:19:40 PM 31.8425 -82.0903 North 165 190 8,100 -800 Descending Jacksonville Center
Thu 05:20:40 PM 31.8906 -82.0900 360° North 176 203 7,400 -800 Descending Jacksonville Center
Thu 05:21:40 PM 31.9447 -82.0944 356° North 182 209 6,500 -600 Descending Jacksonville Center
Thu 05:22:40 PM 31.9886 -82.0989 355° North 176 203 6,200 -400 Descending Jacksonville Center
Thu 05:23:40 PM 32.0367 -82.1008 358° North 176 203 5,700 -500 Descending Jacksonville Center
Thu 05:25:00 PM 32.0923 -82.0908 North  Level FlightAware Approximate
Thu 05:32:00 PM 32.3667 -82.0667 12° North  Level FlightAware Approximate
Thu 05:33:00 PM 32.3740 -82.0814 12° North  Level Estimated

Login

Don't have an account? Register now (free) for customized features, flight alerts, and more!